Flight Information

DEPARTURE
VAN NUYS, CA
Elevation:
802
Runways:
16R/34L - 8001x150 - ASPH-G
16L/34R - 4013x75 - ASPH-G
Active PE Departure:
16L - 16R
Current PE ATIS:
M
Altimeter:
30.00
Remarks:
ATIS:
127.55 818-780-4993
Clearance Delivery:
126.6
Ground:
121.7
Tower:
119.3 (162-345 and dep Rwy 16R-34L)
120.2 (346-161 and dep Rwy 16L-34R)
DESTINATION
,
Elevation:
TPA:
1000 (est.)


6793.7 NM73° True-14° Var59° HDG

Flight Plan:
(click to file on line)

1. Type
2. Aircraft Identification
3. Aircraft Type / Special Equipment
4. True Airspeed
kts
5. Departure Airport
(ICAO code)
6. Arriving Airport
(ICAO code)
7. Cruising Altitude
ft
8. Alternate Airport
(ICAO code)
9. Route of Flight
10. Remarks


00:00:00 Departure ATIS: Destination ATIS:

Clearance Limit:
Route:
Altitude: Expect in minutes
Frequency:
Transponder: (7500 Hijack / 7600 Lost Comms / 7700 Emergency)


KVNY 101551Z 16004KT 9SM CLR 24/15 A3000 RMK AO2 SLP150 T02390150
Time: 2020-07-10T15:51:00Z
1594398876
Winds: 160 @ 4 kts
Visibility: 9.0 sm
Clouds (AGL): CLR
Temperature: 23.9 C
Dew Point: 15.0 C
Pressure: 30.0 in Hgbr


Notes:

Data extracted from FAA Digital Chart Supplement. Effective: 0901Z Thursday, May 21, 2020 to 0901Z Thursday, Jul 16, 2020
Current ATIS data is provided courtisy of PilotEdge.